sensor_id;sensor_type;location;lat;lon;timestamp;P1;durP1;ratioP1;P2;durP2;ratioP2
52586;SDS011;38480;52.724;6.436;2022-09-01T00:00:37;7.43;;;4.20;;
52586;SDS011;38480;52.724;6.436;2022-09-01T00:03:06;8.80;;;3.57;;
52586;SDS011;38480;52.724;6.436;2022-09-01T00:05:34;7.90;;;3.27;;
52586;SDS011;38480;52.724;6.436;2022-09-01T00:08:01;7.63;;;3.27;;
52586;SDS011;38480;52.724;6.436;2022-09-01T00:10:28;6.77;;;3.20;;
52586;SDS011;38480;52.724;6.436;2022-09-01T00:12:54;5.90;;;3.17;;
52586;SDS011;38480;52.724;6.436;2022-09-01T00:15:20;8.83;;;4.03;;
52586;SDS011;38480;52.724;6.436;2022-09-01T00:17:46;8.07;;;3.23;;
52586;SDS011;38480;52.724;6.436;2022-09-01T00:20:12;11.13;;;3.80;;
52586;SDS011;38480;52.724;6.436;2022-09-01T00:22:38;7.53;;;3.27;;
52586;SDS011;38480;52.724;6.436;2022-09-01T00:25:05;9.33;;;3.37;;
52586;SDS011;38480;52.724;6.436;2022-09-01T00:27:32;5.73;;;3.00;;
52586;SDS011;38480;52.724;6.436;2022-09-01T00:29:58;4.27;;;2.97;;
52586;SDS011;38480;52.724;6.436;2022-09-01T00:32:25;6.70;;;3.63;;
52586;SDS011;38480;52.724;6.436;2022-09-01T00:34:51;8.57;;;3.40;;
52586;SDS011;38480;52.724;6.436;2022-09-01T00:37:17;6.50;;;3.17;;
52586;SDS011;38480;52.724;6.436;2022-09-01T00:39:43;6.93;;;3.17;;
52586;SDS011;38480;52.724;6.436;2022-09-01T00:42:09;6.13;;;3.27;;
52586;SDS011;38480;52.724;6.436;2022-09-01T00:44:35;6.47;;;3.27;;
52586;SDS011;38480;52.724;6.436;2022-09-01T00:47:02;7.23;;;3.67;;
52586;SDS011;38480;52.724;6.436;2022-09-01T00:49:32;6.90;;;2.93;;
52586;SDS011;38480;52.724;6.436;2022-09-01T00:52:01;7.80;;;3.33;;
52586;SDS011;38480;52.724;6.436;2022-09-01T00:54:30;7.07;;;3.07;;
52586;SDS011;38480;52.724;6.436;2022-09-01T00:56:57;5.37;;;3.20;;
52586;SDS011;38480;52.724;6.436;2022-09-01T00:59:24;7.47;;;3.57;;
52586;SDS011;38480;52.724;6.436;2022-09-01T01:01:51;7.30;;;4.03;;
52586;SDS011;38480;52.724;6.436;2022-09-01T01:04:17;4.10;;;3.30;;
52586;SDS011;38480;52.724;6.436;2022-09-01T01:06:45;4.07;;;2.90;;
52586;SDS011;38480;52.724;6.436;2022-09-01T01:09:17;8.43;;;3.87;;
52586;SDS011;38480;52.724;6.436;2022-09-01T01:11:43;5.50;;;2.90;;
52586;SDS011;38480;52.724;6.436;2022-09-01T01:14:12;5.80;;;3.03;;
52586;SDS011;38480;52.724;6.436;2022-09-01T01:16:40;6.20;;;3.40;;
52586;SDS011;38480;52.724;6.436;2022-09-01T01:19:39;6.63;;;3.10;;
52586;SDS011;38480;52.724;6.436;2022-09-01T01:22:35;7.30;;;3.10;;
52586;SDS011;38480;52.724;6.436;2022-09-01T01:25:23;7.40;;;3.17;;
52586;SDS011;38480;52.724;6.436;2022-09-01T01:27:49;6.83;;;3.43;;
52586;SDS011;38480;52.724;6.436;2022-09-01T01:30:16;6.30;;;3.37;;
52586;SDS011;38480;52.724;6.436;2022-09-01T01:32:43;5.07;;;3.33;;
52586;SDS011;38480;52.724;6.436;2022-09-01T01:35:11;6.07;;;3.00;;
52586;SDS011;38480;52.724;6.436;2022-09-01T01:37:39;5.67;;;2.90;;
52586;SDS011;38480;52.724;6.436;2022-09-01T01:40:08;5.93;;;3.27;;
52586;SDS011;38480;52.724;6.436;2022-09-01T01:42:41;4.93;;;3.10;;
52586;SDS011;38480;52.724;6.436;2022-09-01T01:45:08;4.77;;;2.83;;
52586;SDS011;38480;52.724;6.436;2022-09-01T01:47:36;7.63;;;3.20;;
52586;SDS011;38480;52.724;6.436;2022-09-01T01:50:02;5.53;;;3.20;;
52586;SDS011;38480;52.724;6.436;2022-09-01T01:52:33;8.70;;;3.67;;
52586;SDS011;38480;52.724;6.436;2022-09-01T01:54:59;6.63;;;3.73;;
52586;SDS011;38480;52.724;6.436;2022-09-01T01:57:26;6.63;;;3.40;;
52586;SDS011;38480;52.724;6.436;2022-09-01T01:59:56;4.83;;;3.30;;
52586;SDS011;38480;52.724;6.436;2022-09-01T02:02:22;5.83;;;3.43;;
52586;SDS011;38480;52.724;6.436;2022-09-01T02:04:48;4.50;;;3.70;;
52586;SDS011;38480;52.724;6.436;2022-09-01T02:07:14;8.10;;;3.37;;
52586;SDS011;38480;52.724;6.436;2022-09-01T02:09:42;8.17;;;3.37;;
52586;SDS011;38480;52.724;6.436;2022-09-01T02:12:10;6.17;;;3.47;;
52586;SDS011;38480;52.724;6.436;2022-09-01T02:14:36;8.70;;;3.33;;
52586;SDS011;38480;52.724;6.436;2022-09-01T02:17:03;5.23;;;3.57;;
52586;SDS011;38480;52.724;6.436;2022-09-01T02:19:30;4.37;;;2.90;;
52586;SDS011;38480;52.724;6.436;2022-09-01T02:21:56;5.47;;;3.40;;
52586;SDS011;38480;52.724;6.436;2022-09-01T02:24:24;6.97;;;3.60;;
52586;SDS011;38480;52.724;6.436;2022-09-01T02:26:52;6.30;;;3.80;;
52586;SDS011;38480;52.724;6.436;2022-09-01T02:29:20;10.30;;;3.70;;
52586;SDS011;38480;52.724;6.436;2022-09-01T02:31:48;5.80;;;3.70;;
52586;SDS011;38480;52.724;6.436;2022-09-01T02:34:15;8.07;;;3.53;;
52586;SDS011;38480;52.724;6.436;2022-09-01T02:36:46;6.33;;;3.77;;
52586;SDS011;38480;52.724;6.436;2022-09-01T02:39:16;8.23;;;4.20;;
52586;SDS011;38480;52.724;6.436;2022-09-01T02:41:43;7.50;;;3.30;;
52586;SDS011;38480;52.724;6.436;2022-09-01T02:44:09;5.87;;;4.20;;
52586;SDS011;38480;52.724;6.436;2022-09-01T02:46:42;7.03;;;4.30;;
52586;SDS011;38480;52.724;6.436;2022-09-01T02:49:10;5.27;;;3.83;;
52586;SDS011;38480;52.724;6.436;2022-09-01T02:51:42;5.13;;;3.80;;
52586;SDS011;38480;52.724;6.436;2022-09-01T02:54:09;7.10;;;3.70;;
52586;SDS011;38480;52.724;6.436;2022-09-01T02:56:35;7.50;;;3.60;;
52586;SDS011;38480;52.724;6.436;2022-09-01T02:59:01;6.90;;;3.60;;
52586;SDS011;38480;52.724;6.436;2022-09-01T03:01:28;7.63;;;4.17;;
52586;SDS011;38480;52.724;6.436;2022-09-01T03:03:56;7.93;;;4.17;;
52586;SDS011;38480;52.724;6.436;2022-09-01T03:06:22;8.30;;;4.40;;
52586;SDS011;38480;52.724;6.436;2022-09-01T03:08:52;6.57;;;4.50;;
52586;SDS011;38480;52.724;6.436;2022-09-01T03:11:19;7.53;;;4.07;;
52586;SDS011;38480;52.724;6.436;2022-09-01T03:13:45;7.57;;;4.40;;
52586;SDS011;38480;52.724;6.436;2022-09-01T03:16:11;7.20;;;4.70;;
52586;SDS011;38480;52.724;6.436;2022-09-01T03:18:38;8.17;;;4.63;;
52586;SDS011;38480;52.724;6.436;2022-09-01T03:21:04;8.17;;;4.97;;
52586;SDS011;38480;52.724;6.436;2022-09-01T03:23:32;7.03;;;5.20;;
52586;SDS011;38480;52.724;6.436;2022-09-01T03:25:59;10.10;;;4.90;;
52586;SDS011;38480;52.724;6.436;2022-09-01T03:28:25;8.23;;;4.63;;
52586;SDS011;38480;52.724;6.436;2022-09-01T03:30:53;6.13;;;4.57;;
52586;SDS011;38480;52.724;6.436;2022-09-01T03:33:19;7.20;;;4.53;;
52586;SDS011;38480;52.724;6.436;2022-09-01T03:35:46;7.50;;;4.87;;
52586;SDS011;38480;52.724;6.436;2022-09-01T03:38:13;6.90;;;4.67;;
52586;SDS011;38480;52.724;6.436;2022-09-01T03:40:45;6.30;;;4.57;;
52586;SDS011;38480;52.724;6.436;2022-09-01T03:43:11;8.17;;;4.20;;
52586;SDS011;38480;52.724;6.436;2022-09-01T03:45:38;8.20;;;5.07;;
52586;SDS011;38480;52.724;6.436;2022-09-01T03:48:05;10.77;;;6.20;;
52586;SDS011;38480;52.724;6.436;2022-09-01T03:50:34;9.23;;;4.17;;
52586;SDS011;38480;52.724;6.436;2022-09-01T03:53:02;8.43;;;5.47;;
52586;SDS011;38480;52.724;6.436;2022-09-01T03:55:29;11.17;;;5.20;;
52586;SDS011;38480;52.724;6.436;2022-09-01T03:57:57;7.10;;;4.87;;
52586;SDS011;38480;52.724;6.436;2022-09-01T04:00:25;9.67;;;5.40;;
52586;SDS011;38480;52.724;6.436;2022-09-01T04:02:54;7.87;;;5.77;;
52586;SDS011;38480;52.724;6.436;2022-09-01T04:05:21;10.67;;;5.57;;
52586;SDS011;38480;52.724;6.436;2022-09-01T04:07:49;10.27;;;5.97;;
52586;SDS011;38480;52.724;6.436;2022-09-01T04:10:18;8.77;;;4.70;;
52586;SDS011;38480;52.724;6.436;2022-09-01T04:12:46;8.83;;;5.67;;
52586;SDS011;38480;52.724;6.436;2022-09-01T04:15:13;8.50;;;2.70;;
52586;SDS011;38480;52.724;6.436;2022-09-01T04:17:41;8.57;;;4.80;;
52586;SDS011;38480;52.724;6.436;2022-09-01T04:20:25;8.87;;;5.50;;
52586;SDS011;38480;52.724;6.436;2022-09-01T04:22:51;7.83;;;5.80;;
52586;SDS011;38480;52.724;6.436;2022-09-01T04:25:19;6.50;;;5.70;;
52586;SDS011;38480;52.724;6.436;2022-09-01T04:27:49;8.30;;;5.30;;
52586;SDS011;38480;52.724;6.436;2022-09-01T04:30:19;9.90;;;5.73;;
52586;SDS011;38480;52.724;6.436;2022-09-01T04:32:49;7.60;;;5.83;;
52586;SDS011;38480;52.724;6.436;2022-09-01T04:35:16;9.20;;;5.80;;
52586;SDS011;38480;52.724;6.436;2022-09-01T04:37:43;8.00;;;5.37;;
52586;SDS011;38480;52.724;6.436;2022-09-01T04:40:11;8.37;;;5.77;;
52586;SDS011;38480;52.724;6.436;2022-09-01T04:42:38;8.80;;;5.90;;
52586;SDS011;38480;52.724;6.436;2022-09-01T04:45:07;11.83;;;6.17;;
52586;SDS011;38480;52.724;6.436;2022-09-01T04:47:35;9.00;;;5.90;;
52586;SDS011;38480;52.724;6.436;2022-09-01T04:50:06;7.37;;;5.17;;
52586;SDS011;38480;52.724;6.436;2022-09-01T04:52:37;9.70;;;5.80;;
52586;SDS011;38480;52.724;6.436;2022-09-01T04:55:06;8.07;;;6.03;;
52586;SDS011;38480;52.724;6.436;2022-09-01T04:57:32;9.07;;;6.17;;
52586;SDS011;38480;52.724;6.436;2022-09-01T04:59:59;8.17;;;5.80;;
52586;SDS011;38480;52.724;6.436;2022-09-01T05:02:25;13.27;;;6.23;;
52586;SDS011;38480;52.724;6.436;2022-09-01T05:04:53;10.57;;;5.83;;
52586;SDS011;38480;52.724;6.436;2022-09-01T05:07:22;9.50;;;6.53;;
52586;SDS011;38480;52.724;6.436;2022-09-01T05:09:48;8.70;;;5.63;;
52586;SDS011;38480;52.724;6.436;2022-09-01T05:12:14;7.60;;;6.13;;
52586;SDS011;38480;52.724;6.436;2022-09-01T05:14:41;6.17;;;4.90;;
52586;SDS011;38480;52.724;6.436;2022-09-01T05:17:11;10.10;;;6.03;;
52586;SDS011;38480;52.724;6.436;2022-09-01T05:19:41;8.23;;;5.63;;
52586;SDS011;38480;52.724;6.436;2022-09-01T05:22:07;8.87;;;5.87;;
52586;SDS011;38480;52.724;6.436;2022-09-01T05:24:34;9.03;;;6.70;;
52586;SDS011;38480;52.724;6.436;2022-09-01T05:27:00;7.60;;;5.83;;
52586;SDS011;38480;52.724;6.436;2022-09-01T05:29:27;8.93;;;6.07;;
52586;SDS011;38480;52.724;6.436;2022-09-01T05:31:53;10.00;;;6.03;;
52586;SDS011;38480;52.724;6.436;2022-09-01T05:34:20;7.60;;;5.60;;
52586;SDS011;38480;52.724;6.436;2022-09-01T05:36:55;8.90;;;5.33;;
52586;SDS011;38480;52.724;6.436;2022-09-01T05:39:22;7.83;;;5.57;;
52586;SDS011;38480;52.724;6.436;2022-09-01T05:41:49;8.60;;;5.77;;
52586;SDS011;38480;52.724;6.436;2022-09-01T05:44:15;9.87;;;6.13;;
52586;SDS011;38480;52.724;6.436;2022-09-01T05:46:42;8.87;;;6.27;;
52586;SDS011;38480;52.724;6.436;2022-09-01T05:49:08;8.87;;;6.17;;
52586;SDS011;38480;52.724;6.436;2022-09-01T05:51:39;8.87;;;5.67;;
52586;SDS011;38480;52.724;6.436;2022-09-01T05:54:05;8.50;;;5.80;;
52586;SDS011;38480;52.724;6.436;2022-09-01T05:56:34;11.00;;;6.37;;
52586;SDS011;38480;52.724;6.436;2022-09-01T05:59:02;7.27;;;4.60;;
52586;SDS011;38480;52.724;6.436;2022-09-01T06:01:29;7.47;;;6.07;;
52586;SDS011;38480;52.724;6.436;2022-09-01T06:03:59;12.23;;;5.27;;
52586;SDS011;38480;52.724;6.436;2022-09-01T06:06:28;9.53;;;5.63;;
52586;SDS011;38480;52.724;6.436;2022-09-01T06:08:56;8.47;;;4.77;;
52586;SDS011;38480;52.724;6.436;2022-09-01T06:11:24;8.93;;;5.87;;
52586;SDS011;38480;52.724;6.436;2022-09-01T06:13:51;4.63;;;3.13;;
52586;SDS011;38480;52.724;6.436;2022-09-01T06:16:21;7.43;;;4.77;;
52586;SDS011;38480;52.724;6.436;2022-09-01T06:18:48;6.93;;;2.83;;
52586;SDS011;38480;52.724;6.436;2022-09-01T06:21:15;7.50;;;3.80;;
52586;SDS011;38480;52.724;6.436;2022-09-01T06:23:45;5.97;;;5.00;;
52586;SDS011;38480;52.724;6.436;2022-09-01T06:26:17;6.37;;;4.27;;
52586;SDS011;38480;52.724;6.436;2022-09-01T06:28:43;6.33;;;3.87;;
52586;SDS011;38480;52.724;6.436;2022-09-01T06:31:09;6.30;;;3.93;;
52586;SDS011;38480;52.724;6.436;2022-09-01T06:33:36;10.10;;;4.20;;
52586;SDS011;38480;52.724;6.436;2022-09-01T06:36:03;5.30;;;3.83;;
52586;SDS011;38480;52.724;6.436;2022-09-01T06:38:29;7.67;;;3.60;;
52586;SDS011;38480;52.724;6.436;2022-09-01T06:40:59;7.30;;;3.63;;
52586;SDS011;38480;52.724;6.436;2022-09-01T06:43:26;9.17;;;3.97;;
52586;SDS011;38480;52.724;6.436;2022-09-01T06:45:54;6.63;;;3.63;;
52586;SDS011;38480;52.724;6.436;2022-09-01T06:48:20;5.57;;;3.23;;
52586;SDS011;38480;52.724;6.436;2022-09-01T06:50:47;6.47;;;3.83;;
52586;SDS011;38480;52.724;6.436;2022-09-01T06:53:13;5.73;;;4.10;;
52586;SDS011;38480;52.724;6.436;2022-09-01T06:55:43;6.27;;;3.60;;
52586;SDS011;38480;52.724;6.436;2022-09-01T06:58:11;10.73;;;3.90;;
52586;SDS011;38480;52.724;6.436;2022-09-01T07:00:39;12.53;;;3.23;;
52586;SDS011;38480;52.724;6.436;2022-09-01T07:03:10;6.30;;;3.00;;
52586;SDS011;38480;52.724;6.436;2022-09-01T07:05:40;5.70;;;3.70;;
52586;SDS011;38480;52.724;6.436;2022-09-01T07:08:08;6.03;;;2.50;;
52586;SDS011;38480;52.724;6.436;2022-09-01T07:10:38;4.30;;;2.87;;
52586;SDS011;38480;52.724;6.436;2022-09-01T07:13:06;8.83;;;3.30;;
52586;SDS011;38480;52.724;6.436;2022-09-01T07:15:40;6.17;;;2.37;;
52586;SDS011;38480;52.724;6.436;2022-09-01T07:18:06;5.67;;;2.60;;
52586;SDS011;38480;52.724;6.436;2022-09-01T07:20:34;6.50;;;3.10;;
52586;SDS011;38480;52.724;6.436;2022-09-01T07:23:03;5.83;;;2.80;;
52586;SDS011;38480;52.724;6.436;2022-09-01T07:25:29;7.00;;;2.70;;
52586;SDS011;38480;52.724;6.436;2022-09-01T07:27:56;5.10;;;2.30;;
52586;SDS011;38480;52.724;6.436;2022-09-01T07:30:24;7.27;;;2.80;;
52586;SDS011;38480;52.724;6.436;2022-09-01T07:32:50;5.43;;;2.20;;
52586;SDS011;38480;52.724;6.436;2022-09-01T07:35:18;8.13;;;2.77;;
52586;SDS011;38480;52.724;6.436;2022-09-01T07:37:46;5.97;;;2.53;;
52586;SDS011;38480;52.724;6.436;2022-09-01T07:40:17;4.03;;;2.27;;
52586;SDS011;38480;52.724;6.436;2022-09-01T07:42:52;6.00;;;2.40;;
52586;SDS011;38480;52.724;6.436;2022-09-01T07:45:18;3.97;;;2.57;;
52586;SDS011;38480;52.724;6.436;2022-09-01T07:47:44;7.53;;;2.33;;
52586;SDS011;38480;52.724;6.436;2022-09-01T07:50:11;7.33;;;2.90;;
52586;SDS011;38480;52.724;6.436;2022-09-01T07:52:40;5.87;;;2.37;;
52586;SDS011;38480;52.724;6.436;2022-09-01T07:55:14;5.00;;;2.23;;
52586;SDS011;38480;52.724;6.436;2022-09-01T07:57:41;4.23;;;1.80;;
52586;SDS011;38480;52.724;6.436;2022-09-01T08:00:09;10.43;;;3.57;;
52586;SDS011;38480;52.724;6.436;2022-09-01T08:02:36;7.63;;;2.37;;
52586;SDS011;38480;52.724;6.436;2022-09-01T08:05:07;3.17;;;1.60;;
52586;SDS011;38480;52.724;6.436;2022-09-01T08:07:36;3.63;;;1.70;;
52586;SDS011;38480;52.724;6.436;2022-09-01T08:10:04;5.13;;;2.13;;
52586;SDS011;38480;52.724;6.436;2022-09-01T08:12:30;3.90;;;1.73;;
52586;SDS011;38480;52.724;6.436;2022-09-01T08:14:56;6.57;;;1.80;;
52586;SDS011;38480;52.724;6.436;2022-09-01T08:17:22;7.87;;;1.60;;
52586;SDS011;38480;52.724;6.436;2022-09-01T08:19:48;5.27;;;2.20;;
52586;SDS011;38480;52.724;6.436;2022-09-01T08:22:14;7.47;;;2.63;;
52586;SDS011;38480;52.724;6.436;2022-09-01T08:24:41;4.80;;;1.80;;
52586;SDS011;38480;52.724;6.436;2022-09-01T08:27:07;6.57;;;1.60;;
52586;SDS011;38480;52.724;6.436;2022-09-01T08:29:33;8.13;;;1.60;;
52586;SDS011;38480;52.724;6.436;2022-09-01T08:31:59;5.23;;;1.30;;
52586;SDS011;38480;52.724;6.436;2022-09-01T08:34:26;3.30;;;1.30;;
52586;SDS011;38480;52.724;6.436;2022-09-01T08:36:52;3.27;;;1.40;;
52586;SDS011;38480;52.724;6.436;2022-09-01T08:39:18;3.33;;;1.10;;
52586;SDS011;38480;52.724;6.436;2022-09-01T08:44:32;6.50;;;0.90;;
52586;SDS011;38480;52.724;6.436;2022-09-01T08:47:06;4.45;;;1.58;;
52586;SDS011;38480;52.724;6.436;2022-09-01T08:49:33;2.63;;;1.10;;
52586;SDS011;38480;52.724;6.436;2022-09-01T08:52:10;2.73;;;1.00;;
52586;SDS011;38480;52.724;6.436;2022-09-01T08:54:43;4.43;;;1.70;;
52586;SDS011;38480;52.724;6.436;2022-09-01T08:57:13;4.20;;;1.30;;
52586;SDS011;38480;52.724;6.436;2022-09-01T08:59:40;2.17;;;0.90;;
52586;SDS011;38480;52.724;6.436;2022-09-01T09:04:46;2.57;;;0.90;;
52586;SDS011;38480;52.724;6.436;2022-09-01T09:10:05;1.67;;;0.63;;
52586;SDS011;38480;52.724;6.436;2022-09-01T09:12:31;2.50;;;0.70;;
52586;SDS011;38480;52.724;6.436;2022-09-01T09:15:21;2.40;;;0.80;;
52586;SDS011;38480;52.724;6.436;2022-09-01T09:17:50;4.33;;;0.93;;
52586;SDS011;38480;52.724;6.436;2022-09-01T09:20:23;2.17;;;0.63;;
52586;SDS011;38480;52.724;6.436;2022-09-01T09:22:49;5.83;;;1.00;;
52586;SDS011;38480;52.724;6.436;2022-09-01T09:25:16;2.80;;;1.10;;
52586;SDS011;38480;52.724;6.436;2022-09-01T09:27:43;2.50;;;1.10;;
52586;SDS011;38480;52.724;6.436;2022-09-01T09:30:11;2.73;;;0.97;;
52586;SDS011;38480;52.724;6.436;2022-09-01T09:43:24;3.95;;;0.98;;
52586;SDS011;38480;52.724;6.436;2022-09-01T09:45:52;2.53;;;1.05;;
52586;SDS011;38480;52.724;6.436;2022-09-01T09:48:37;1.42;;;0.57;;
52586;SDS011;38480;52.724;6.436;2022-09-01T09:51:16;2.20;;;0.93;;
52586;SDS011;38480;52.724;6.436;2022-09-01T09:53:44;3.75;;;0.73;;
52586;SDS011;38480;52.724;6.436;2022-09-01T09:56:17;1.48;;;0.60;;
52586;SDS011;38480;52.724;6.436;2022-09-01T09:58:44;2.13;;;0.80;;
52586;SDS011;38480;52.724;6.436;2022-09-01T10:01:12;2.90;;;0.80;;
52586;SDS011;38480;52.724;6.436;2022-09-01T10:03:45;1.88;;;0.60;;
52586;SDS011;38480;52.724;6.436;2022-09-01T10:06:31;3.90;;;1.00;;
52586;SDS011;38480;52.724;6.436;2022-09-01T10:08:57;1.77;;;0.60;;
52586;SDS011;38480;52.724;6.436;2022-09-01T10:11:57;3.78;;;0.90;;
52586;SDS011;38480;52.724;6.436;2022-09-01T10:14:18;2.10;;;0.60;;
52586;SDS011;38480;52.724;6.436;2022-09-01T10:16:46;2.33;;;0.77;;
52586;SDS011;38480;52.724;6.436;2022-09-01T10:19:13;2.80;;;1.10;;
52586;SDS011;38480;52.724;6.436;2022-09-01T10:21:40;3.28;;;0.80;;
52586;SDS011;38480;52.724;6.436;2022-09-01T10:26:52;5.13;;;0.70;;
52586;SDS011;38480;52.724;6.436;2022-09-01T10:32:08;1.25;;;0.60;;
52586;SDS011;38480;52.724;6.436;2022-09-01T10:34:36;2.72;;;0.95;;
52586;SDS011;38480;52.724;6.436;2022-09-01T10:37:03;2.53;;;0.80;;
52586;SDS011;38480;52.724;6.436;2022-09-01T10:39:30;2.92;;;0.68;;
52586;SDS011;38480;52.724;6.436;2022-09-01T10:41:57;4.07;;;0.85;;
52586;SDS011;38480;52.724;6.436;2022-09-01T10:44:32;3.03;;;0.65;;
52586;SDS011;38480;52.724;6.436;2022-09-01T10:47:03;2.42;;;0.60;;
52586;SDS011;38480;52.724;6.436;2022-09-01T10:51:59;3.58;;;0.82;;
52586;SDS011;38480;52.724;6.436;2022-09-01T10:54:48;3.63;;;0.82;;
52586;SDS011;38480;52.724;6.436;2022-09-01T11:05:57;2.28;;;0.50;;
52586;SDS011;38480;52.724;6.436;2022-09-01T11:08:20;1.05;;;0.50;;
52586;SDS011;38480;52.724;6.436;2022-09-01T11:10:58;2.40;;;0.60;;
52586;SDS011;38480;52.724;6.436;2022-09-01T11:13:44;2.25;;;0.82;;
52586;SDS011;38480;52.724;6.436;2022-09-01T11:18:47;1.75;;;0.60;;
52586;SDS011;38480;52.724;6.436;2022-09-01T11:21:15;2.50;;;0.82;;
52586;SDS011;38480;52.724;6.436;2022-09-01T11:23:42;2.33;;;0.80;;
52586;SDS011;38480;52.724;6.436;2022-09-01T11:28:54;2.42;;;0.68;;
52586;SDS011;38480;52.724;6.436;2022-09-01T11:34:04;2.67;;;0.60;;
52586;SDS011;38480;52.724;6.436;2022-09-01T11:36:36;1.10;;;0.50;;
52586;SDS011;38480;52.724;6.436;2022-09-01T11:41:30;1.30;;;0.70;;
52586;SDS011;38480;52.724;6.436;2022-09-01T11:43:58;1.60;;;0.73;;
52586;SDS011;38480;52.724;6.436;2022-09-01T11:46:26;3.67;;;0.60;;
52586;SDS011;38480;52.724;6.436;2022-09-01T11:48:53;2.20;;;0.65;;
52586;SDS011;38480;52.724;6.436;2022-09-01T11:51:19;2.47;;;0.60;;
52586;SDS011;38480;52.724;6.436;2022-09-01T11:53:45;2.60;;;0.70;;
52586;SDS011;38480;52.724;6.436;2022-09-01T11:56:13;1.98;;;0.60;;
52586;SDS011;38480;52.724;6.436;2022-09-01T11:58:40;2.33;;;0.52;;
52586;SDS011;38480;52.724;6.436;2022-09-01T12:01:13;2.42;;;0.55;;
52586;SDS011;38480;52.724;6.436;2022-09-01T12:03:39;1.27;;;0.70;;
52586;SDS011;38480;52.724;6.436;2022-09-01T12:06:07;1.30;;;0.50;;
52586;SDS011;38480;52.724;6.436;2022-09-01T12:08:38;1.40;;;0.70;;
52586;SDS011;38480;52.724;6.436;2022-09-01T12:11:09;3.60;;;0.75;;
52586;SDS011;38480;52.724;6.436;2022-09-01T12:13:36;3.05;;;0.60;;
52586;SDS011;38480;52.724;6.436;2022-09-01T12:16:06;2.63;;;0.43;;
52586;SDS011;38480;52.724;6.436;2022-09-01T12:18:33;2.83;;;0.85;;
52586;SDS011;38480;52.724;6.436;2022-09-01T12:21:03;1.77;;;0.60;;
52586;SDS011;38480;52.724;6.436;2022-09-01T12:25:59;2.90;;;0.77;;
52586;SDS011;38480;52.724;6.436;2022-09-01T12:28:27;1.50;;;0.60;;
52586;SDS011;38480;52.724;6.436;2022-09-01T12:31:01;1.88;;;0.55;;
52586;SDS011;38480;52.724;6.436;2022-09-01T12:33:28;6.38;;;0.75;;
52586;SDS011;38480;52.724;6.436;2022-09-01T12:38:39;3.25;;;0.70;;
52586;SDS011;38480;52.724;6.436;2022-09-01T12:41:21;1.70;;;0.50;;
52586;SDS011;38480;52.724;6.436;2022-09-01T12:43:47;3.72;;;0.90;;
52586;SDS011;38480;52.724;6.436;2022-09-01T12:46:38;3.83;;;0.70;;
52586;SDS011;38480;52.724;6.436;2022-09-01T12:49:22;3.75;;;0.60;;
52586;SDS011;38480;52.724;6.436;2022-09-01T12:51:49;3.45;;;0.80;;
52586;SDS011;38480;52.724;6.436;2022-09-01T12:54:16;3.67;;;1.00;;
52586;SDS011;38480;52.724;6.436;2022-09-01T12:56:49;4.32;;;0.60;;
52586;SDS011;38480;52.724;6.436;2022-09-01T12:59:20;3.63;;;1.05;;
52586;SDS011;38480;52.724;6.436;2022-09-01T13:01:47;4.47;;;0.80;;
52586;SDS011;38480;52.724;6.436;2022-09-01T13:06:42;1.70;;;0.57;;
52586;SDS011;38480;52.724;6.436;2022-09-01T13:09:08;1.95;;;0.40;;
52586;SDS011;38480;52.724;6.436;2022-09-01T13:11:34;5.00;;;0.60;;
52586;SDS011;38480;52.724;6.436;2022-09-01T13:14:00;3.53;;;0.75;;
52586;SDS011;38480;52.724;6.436;2022-09-01T13:16:26;1.48;;;0.47;;
52586;SDS011;38480;52.724;6.436;2022-09-01T13:18:52;2.40;;;0.50;;
52586;SDS011;38480;52.724;6.436;2022-09-01T13:21:18;1.83;;;0.65;;
52586;SDS011;38480;52.724;6.436;2022-09-01T13:23:44;1.48;;;0.60;;
52586;SDS011;38480;52.724;6.436;2022-09-01T13:26:10;3.20;;;0.80;;
52586;SDS011;38480;52.724;6.436;2022-09-01T13:28:36;1.15;;;0.55;;
52586;SDS011;38480;52.724;6.436;2022-09-01T13:31:03;2.38;;;0.60;;
52586;SDS011;38480;52.724;6.436;2022-09-01T13:33:29;3.85;;;0.60;;
52586;SDS011;38480;52.724;6.436;2022-09-01T13:35:56;2.60;;;0.60;;
52586;SDS011;38480;52.724;6.436;2022-09-01T13:38:21;4.18;;;0.70;;
52586;SDS011;38480;52.724;6.436;2022-09-01T13:40:48;5.15;;;0.60;;
52586;SDS011;38480;52.724;6.436;2022-09-01T13:43:15;1.50;;;0.50;;
52586;SDS011;38480;52.724;6.436;2022-09-01T13:45:41;0.80;;;0.50;;
52586;SDS011;38480;52.724;6.436;2022-09-01T13:48:08;1.88;;;0.60;;
52586;SDS011;38480;52.724;6.436;2022-09-01T13:50:34;3.80;;;0.50;;
52586;SDS011;38480;52.724;6.436;2022-09-01T13:53:01;2.58;;;0.45;;
52586;SDS011;38480;52.724;6.436;2022-09-01T13:55:28;3.30;;;0.80;;
52586;SDS011;38480;52.724;6.436;2022-09-01T13:57:54;4.85;;;0.63;;
52586;SDS011;38480;52.724;6.436;2022-09-01T14:00:23;3.33;;;0.77;;
52586;SDS011;38480;52.724;6.436;2022-09-01T14:02:51;1.13;;;0.40;;
52586;SDS011;38480;52.724;6.436;2022-09-01T14:05:18;2.60;;;0.70;;
52586;SDS011;38480;52.724;6.436;2022-09-01T14:07:44;3.17;;;0.85;;
52586;SDS011;38480;52.724;6.436;2022-09-01T14:10:11;4.07;;;0.60;;
52586;SDS011;38480;52.724;6.436;2022-09-01T14:12:38;2.22;;;0.70;;
52586;SDS011;38480;52.724;6.436;2022-09-01T14:15:05;2.38;;;0.70;;
52586;SDS011;38480;52.724;6.436;2022-09-01T14:17:33;2.92;;;0.63;;
52586;SDS011;38480;52.724;6.436;2022-09-01T14:19:59;2.25;;;0.65;;
52586;SDS011;38480;52.724;6.436;2022-09-01T14:22:25;2.97;;;0.70;;
52586;SDS011;38480;52.724;6.436;2022-09-01T14:24:51;1.77;;;0.80;;
52586;SDS011;38480;52.724;6.436;2022-09-01T14:27:17;3.53;;;0.77;;
52586;SDS011;38480;52.724;6.436;2022-09-01T14:29:47;2.45;;;0.60;;
52586;SDS011;38480;52.724;6.436;2022-09-01T14:32:14;2.22;;;0.80;;
52586;SDS011;38480;52.724;6.436;2022-09-01T14:34:41;1.55;;;0.70;;
52586;SDS011;38480;52.724;6.436;2022-09-01T14:37:07;1.25;;;0.50;;
52586;SDS011;38480;52.724;6.436;2022-09-01T14:39:33;2.15;;;0.75;;
52586;SDS011;38480;52.724;6.436;2022-09-01T14:41:59;1.88;;;0.60;;
52586;SDS011;38480;52.724;6.436;2022-09-01T14:44:25;1.70;;;0.80;;
52586;SDS011;38480;52.724;6.436;2022-09-01T14:46:51;2.60;;;0.60;;
52586;SDS011;38480;52.724;6.436;2022-09-01T14:49:18;3.45;;;0.68;;
52586;SDS011;38480;52.724;6.436;2022-09-01T14:51:44;3.25;;;0.68;;
52586;SDS011;38480;52.724;6.436;2022-09-01T14:54:11;1.30;;;0.60;;
52586;SDS011;38480;52.724;6.436;2022-09-01T14:56:37;1.60;;;0.90;;
52586;SDS011;38480;52.724;6.436;2022-09-01T14:59:03;1.15;;;0.63;;
52586;SDS011;38480;52.724;6.436;2022-09-01T15:01:30;2.13;;;0.47;;
52586;SDS011;38480;52.724;6.436;2022-09-01T15:03:56;9.73;;;0.80;;
52586;SDS011;38480;52.724;6.436;2022-09-01T15:06:22;1.77;;;0.60;;
52586;SDS011;38480;52.724;6.436;2022-09-01T15:08:48;2.17;;;0.52;;
52586;SDS011;38480;52.724;6.436;2022-09-01T15:11:17;1.40;;;0.70;;
52586;SDS011;38480;52.724;6.436;2022-09-01T15:13:43;2.15;;;0.90;;
52586;SDS011;38480;52.724;6.436;2022-09-01T15:16:14;1.52;;;0.77;;
52586;SDS011;38480;52.724;6.436;2022-09-01T15:18:40;3.75;;;0.57;;
52586;SDS011;38480;52.724;6.436;2022-09-01T15:21:07;2.08;;;0.77;;
52586;SDS011;38480;52.724;6.436;2022-09-01T15:23:33;1.52;;;0.70;;
52586;SDS011;38480;52.724;6.436;2022-09-01T15:25:59;3.30;;;0.93;;
52586;SDS011;38480;52.724;6.436;2022-09-01T15:28:25;2.60;;;0.70;;
52586;SDS011;38480;52.724;6.436;2022-09-01T15:30:53;3.22;;;0.75;;
52586;SDS011;38480;52.724;6.436;2022-09-01T15:33:21;1.67;;;0.80;;
52586;SDS011;38480;52.724;6.436;2022-09-01T15:35:47;3.15;;;0.65;;
52586;SDS011;38480;52.724;6.436;2022-09-01T15:38:13;1.05;;;0.55;;
52586;SDS011;38480;52.724;6.436;2022-09-01T15:40:40;1.40;;;0.63;;
52586;SDS011;38480;52.724;6.436;2022-09-01T15:43:06;2.70;;;0.70;;
52586;SDS011;38480;52.724;6.436;2022-09-01T15:45:32;1.80;;;0.50;;
52586;SDS011;38480;52.724;6.436;2022-09-01T15:47:59;4.93;;;0.70;;